Aeroporto :
LOGIN :

Iscrizione | Disclaimer

   EN    FR    IT 

 










Sommario :    VFR   VFR Marginale   IFR   IFR Intensivo   IFR Molto Intensivo
Visibilità : 
Base nubi : 
>= 8 km
>= 3000ft
5 / 8 km
1000 / 3000 ft
1500m / 5 km
500 / 1000 ft
800 / 1500m
200 / 500 ft
< 800m
< 200 ft
Simboli :   Temporali  Nebbia  Neve Forte  Precipitazioni Forti  Vento > 20 kt
SIGMETs :   Varie  Temporali  Ghiacco  Turbolenza  Onda orograficha  Ceneri Vulcaniche






- Altitudine del aeroporto : 588 ft
- Codice IATA : DME


UUDD - Domodedovo International

ULTIMO METAR :
  • 310000Z 05007MPS 9999 -SHRA SCT011 BKN040CB 14/11 Q1008 R32L/290042 NOSIG

METARs OBSOLETI :
  • 302330Z 04008MPS 9999 SCT010 BKN040CB 14/12 Q1008 R32L/290042 NOSIG
  • 302300Z 04007MPS 9999 BKN008 14/12 Q1008 R32L/290042 NOSIG
  • 302230Z 04007MPS 9999 BKN007 14/12 Q1008 R32L/290042 NOSIG
  • 302200Z 04007MPS 9999 BKN007 15/13 Q1008 R32L/290042 NOSIG
  • 302130Z 04007MPS 9999 BKN007 15/13 Q1008 R32L/290042 NOSIG

TAF TAF UUDD
Valido dal 31 a 00 ore il 01 a 06 ore UTC


302257Z 3100/0106 03006MPS 8000 SCT006 BKN012 TX13/3100Z TN08/0100Z
TEMPO 3100/3118 01008G15MPS 2100 -SHRA BKN006 SCT013CB
PROB40
TEMPO 3100/3106 -TSRA BKN012CB



MetMap, La meteo Aeronautica in un colpo d'occhio ! - Copyright ORBIFLY Dicembre 2007 - Disclaimer

ORBIFLY MET'MAP TEAM :

Programmazione e sviluppo : Alexandra Zaïnal
Concezione : Baudouin d'Aumeries
Aiuto per la programmazione : Marc-Olivier Méhu
Supporto tecnico e logistico : Manuel Goepfert
Aiuto per la traduzione : Arnaldo La Scala

Contatto : metmap@orbifly.com




FONTI E CREDITI :

   NOAA